Time;durP1;ratioP1;P1;durP2;ratioP2;P2;SDS_P1;SDS_P2;PMS_P1;PMS_P2;Temp;Humidity;BMP_temperature;BMP_pressure;BME280_temperature;BME280_humidity;BME280_pressure;Samples;Min_cycle;Max_cycle;Signal;HPM_P1;HPM_P2
2022/01/05 00:02:12;;;;;;;9.80;8.40;;;;;;;6.25;87.01;96051.20;109621;1277;22460;-60
2022/01/05 00:04:41;;;;;;;10.00;8.90;;;;;;;6.24;86.82;96055.77;109495;1276;138046;-61
2022/01/05 00:07:12;;;;;;;10.90;9.80;;;;;;;6.21;87.23;96048.85;109633;1275;22397;-61
2022/01/05 00:09:48;;;;;;;;;;;;;;;6.14;87.37;96047.55;109631;1277;23346;-60
2022/01/05 00:12:20;;;;;;;8.70;7.60;;;;;;;6.06;87.80;96053.77;109616;1275;22531;-60
2022/01/05 00:14:51;;;;;;;8.10;7.20;;;;;;;6.03;87.21;96048.76;109623;1275;22234;-60
2022/01/05 00:17:28;;;;;;;7.80;6.90;;;;;;;6.00;87.54;96061.13;109634;1276;23419;-61
2022/01/05 00:20:01;;;;;;;7.70;6.90;;;;;;;5.98;87.43;96067.09;109529;1277;22571;-60
2022/01/05 00:22:40;;;;;;;8.80;7.70;;;;;;;5.99;87.13;96073.66;109602;1274;22385;-60
2022/01/05 00:25:09;;;;;;;8.70;7.80;;;;;;;6.01;87.26;96075.63;109617;1277;22542;-60
2022/01/05 00:27:40;;;;;;;9.20;8.20;;;;;;;6.00;87.04;96091.29;109527;1276;22397;-61
2022/01/05 00:30:18;;;;;;;9.50;8.50;;;;;;;5.95;87.04;96100.23;109536;1276;22537;-60
2022/01/05 00:32:47;;;;;;;9.20;8.00;;;;;;;5.94;87.32;96098.65;109621;1276;23192;-61
2022/01/05 00:35:17;;;;;;;9.30;8.30;;;;;;;5.92;87.18;96093.98;109496;1276;138715;-59
2022/01/05 00:37:46;;;;;;;10.90;8.90;;;;;;;5.92;87.06;96091.56;109621;1276;23113;-60
2022/01/05 00:40:14;;;;;;;10.40;9.30;;;;;;;5.92;87.11;96092.06;109618;1277;22474;-60
2022/01/05 00:42:44;;;;;;;10.80;9.40;;;;;;;5.88;87.13;96101.27;109626;1275;22410;-60
2022/01/05 00:45:17;;;;;;;9.70;8.70;;;;;;;5.86;87.11;96106.33;109590;1276;22420;-60
2022/01/05 00:47:46;;;;;;;10.90;9.20;;;;;;;5.83;87.29;96106.32;109618;1275;22426;-59
2022/01/05 00:50:14;;;;;;;9.50;8.40;;;;;;;5.83;87.25;96100.91;109625;1275;22444;-60
2022/01/05 00:52:42;;;;;;;10.00;9.00;;;;;;;5.82;87.17;96091.27;109625;1276;23159;-61
2022/01/05 00:55:10;;;;;;;11.40;10.10;;;;;;;5.79;87.29;96081.63;109608;1275;22489;-59
2022/01/05 00:57:38;;;;;;;10.40;9.30;;;;;;;5.78;87.05;96086.77;109587;1275;22520;-60
2022/01/05 01:00:07;;;;;;;10.40;9.00;;;;;;;5.79;86.99;96089.08;109585;1275;22495;-60
2022/01/05 01:02:35;;;;;;;9.70;8.70;;;;;;;5.81;87.12;96102.95;109605;1275;22479;-60
2022/01/05 01:05:04;;;;;;;11.80;10.60;;;;;;;5.82;86.95;96101.01;109504;1275;137892;-60
2022/01/05 01:07:32;;;;;;;13.40;12.10;;;;;;;5.86;86.98;96100.95;109680;1274;22519;-61
2022/01/05 01:10:00;;;;;;;14.40;12.70;;;;;;;5.89;86.96;96111.34;109689;1274;23321;-60
2022/01/05 01:12:28;;;;;;;12.50;11.20;;;;;;;5.89;87.07;96127.46;109700;1274;22264;-60
2022/01/05 01:14:56;;;;;;;11.30;10.20;;;;;;;5.90;86.90;96127.77;109616;1274;23227;-60
2022/01/05 01:17:24;;;;;;;12.50;11.20;;;;;;;5.88;86.84;96130.55;109664;1274;22499;-61
2022/01/05 01:19:52;;;;;;;11.10;10.00;;;;;;;5.89;87.01;96132.97;109627;1274;22562;-60
2022/01/05 01:22:21;;;;;;;12.40;11.30;;;;;;;5.93;87.00;96131.83;109617;1275;22353;-61
2022/01/05 01:24:49;;;;;;;14.50;13.10;;;;;;;5.89;87.21;96119.36;109615;1275;22504;-61
2022/01/05 01:27:17;;;;;;;15.00;13.50;;;;;;;5.85;87.40;96108.73;109634;1275;22418;-61
2022/01/05 01:29:46;;;;;;;15.20;13.60;;;;;;;5.83;87.15;96101.36;109606;1276;22450;-60
2022/01/05 01:32:14;;;;;;;14.20;12.90;;;;;;;5.79;87.39;96088.35;109631;1274;22429;-60
2022/01/05 01:34:42;;;;;;;15.80;14.40;;;;;;;5.81;87.24;96094.34;109629;1276;22566;-61
2022/01/05 01:37:10;;;;;;;16.40;14.90;;;;;;;5.85;87.25;96098.31;109621;1275;23207;-61
2022/01/05 01:39:38;;;;;;;14.50;13.00;;;;;;;5.85;87.31;96104.98;109639;1276;23179;-60
2022/01/05 01:42:07;;;;;;;15.10;13.80;;;;;;;5.81;87.29;96109.30;109612;1275;22487;-61
2022/01/05 01:44:35;;;;;;;13.10;11.80;;;;;;;5.80;87.28;96111.82;109627;1277;23300;-60
2022/01/05 01:47:04;;;;;;;14.20;12.80;;;;;;;5.81;87.18;96115.69;109628;1273;22436;-60
2022/01/05 01:49:32;;;;;;;15.80;14.10;;;;;;;5.81;87.19;96116.06;109593;1275;22502;-60
2022/01/05 01:52:00;;;;;;;15.80;14.30;;;;;;;5.84;87.24;96123.61;109491;1276;22440;-60
2022/01/05 01:54:29;;;;;;;15.90;14.40;;;;;;;5.84;87.25;96133.02;109603;1276;22430;-60
2022/01/05 01:56:59;;;;;;;15.00;13.50;;;;;;;5.82;87.24;96131.76;109608;1275;22449;-59
2022/01/05 01:59:27;;;;;;;15.20;13.90;;;;;;;5.80;87.33;96137.19;109622;1276;23158;-60
2022/01/05 02:01:55;;;;;;;13.30;12.00;;;;;;;5.79;87.18;96141.13;109625;1275;22579;-60
2022/01/05 02:04:23;;;;;;;13.50;12.10;;;;;;;5.76;87.14;96143.84;109611;1276;23280;-60
2022/01/05 02:06:52;;;;;;;15.20;13.80;;;;;;;5.73;87.05;96147.77;109604;1276;22361;-60
2022/01/05 02:09:20;;;;;;;14.80;13.50;;;;;;;5.71;87.21;96149.12;109608;1276;22568;-60
2022/01/05 02:11:49;;;;;;;17.80;15.50;;;;;;;5.70;87.40;96143.88;109628;1275;22416;-60
2022/01/05 02:14:17;;;;;;;20.60;14.90;;;;;;;5.67;87.33;96155.42;109613;1277;22548;-60
2022/01/05 02:16:46;;;;;;;14.20;12.90;;;;;;;5.61;87.37;96156.75;109621;1276;22498;-60
2022/01/05 02:19:14;;;;;;;13.30;12.00;;;;;;;5.56;87.34;96144.06;109499;1275;22387;-60
2022/01/05 02:21:43;;;;;;;13.60;12.30;;;;;;;5.51;87.34;96144.48;109627;1275;23179;-60
2022/01/05 02:24:11;;;;;;;12.40;11.10;;;;;;;5.46;87.41;96152.23;109612;1275;22410;-60
2022/01/05 02:26:41;;;;;;;11.60;10.50;;;;;;;5.44;87.51;96148.55;109635;1275;22419;-60
2022/01/05 02:29:09;;;;;;;12.00;10.80;;;;;;;5.44;87.52;96142.14;109280;1276;447497;-60
2022/01/05 02:31:37;;;;;;;13.30;11.90;;;;;;;5.44;87.39;96140.30;109628;1275;23646;-60
2022/01/05 02:34:05;;;;;;;12.20;11.10;;;;;;;5.42;87.64;96149.54;109621;1275;22472;-59
2022/01/05 02:36:33;;;;;;;14.40;13.00;;;;;;;5.40;87.49;96139.36;109615;1275;22243;-60
2022/01/05 02:39:02;;;;;;;13.90;12.60;;;;;;;5.38;87.53;96140.95;109618;1275;22936;-60
2022/01/05 02:41:30;;;;;;;13.00;11.90;;;;;;;5.40;87.60;96150.79;109614;1275;22991;-59
2022/01/05 02:43:58;;;;;;;12.40;11.20;;;;;;;5.40;87.41;96157.52;109629;1275;22482;-60
2022/01/05 02:46:26;;;;;;;13.10;11.70;;;;;;;5.43;87.38;96162.84;109631;1275;23052;-60
2022/01/05 02:48:55;;;;;;;13.50;12.20;;;;;;;5.42;87.38;96164.88;109626;1276;22438;-60
2022/01/05 02:51:23;;;;;;;15.00;13.60;;;;;;;5.40;87.47;96156.44;109618;1275;22269;-61
2022/01/05 02:53:51;;;;;;;14.20;12.80;;;;;;;5.37;87.48;96144.71;109617;1275;22438;-60
2022/01/05 02:56:19;;;;;;;14.60;13.20;;;;;;;5.35;87.47;96142.28;109595;1276;22566;-61
2022/01/05 02:58:47;;;;;;;16.80;15.30;;;;;;;5.35;87.39;96153.96;109620;1275;23122;-60
2022/01/05 03:01:16;;;;;;;16.50;15.10;;;;;;;5.35;87.32;96156.52;109621;1275;22414;-60
2022/01/05 03:03:44;;;;;;;17.90;16.20;;;;;;;5.35;87.40;96146.44;109637;1275;22487;-60
2022/01/05 03:06:12;;;;;;;19.00;17.40;;;;;;;5.34;87.36;96141.39;109620;1275;23124;-60
2022/01/05 03:08:40;;;;;;;19.50;17.70;;;;;;;5.31;87.61;96138.96;109594;1275;22712;-60
2022/01/05 03:11:08;;;;;;;19.30;17.70;;;;;;;5.27;87.49;96123.37;109610;1275;23071;-61
2022/01/05 03:13:36;;;;;;;18.20;16.70;;;;;;;5.26;87.39;96110.26;109628;1273;23353;-60
2022/01/05 03:16:04;;;;;;;20.20;18.60;;;;;;;5.27;87.45;96107.24;109591;1275;23104;-60
2022/01/05 03:18:32;;;;;;;20.50;18.70;;;;;;;5.28;87.67;96106.85;109612;1277;22563;-61
2022/01/05 03:21:00;;;;;;;20.80;19.10;;;;;;;5.29;87.57;96094.52;109626;1275;22600;-60
2022/01/05 03:23:28;;;;;;;21.00;19.30;;;;;;;5.31;87.94;96097.02;109613;1276;22589;-60
2022/01/05 03:25:56;;;;;;;20.70;19.00;;;;;;;5.34;87.56;96101.90;109613;1277;22420;-61
2022/01/05 03:28:24;;;;;;;18.70;17.20;;;;;;;5.37;87.60;96100.65;109616;1276;22563;-60
2022/01/05 03:30:52;;;;;;;20.90;19.10;;;;;;;5.38;87.50;96091.55;109639;1275;23231;-61
2022/01/05 03:33:21;;;;;;;23.20;21.40;;;;;;;5.41;87.71;96082.66;109632;1275;22472;-60
2022/01/05 03:35:49;;;;;;;24.40;22.60;;;;;;;5.43;87.62;96083.55;109621;1275;22427;-61
2022/01/05 03:38:18;;;;;;;28.20;25.80;;;;;;;5.48;87.87;96075.38;109590;1275;23250;-61
2022/01/05 03:40:47;;;;;;;27.30;24.90;;;;;;;5.53;87.85;96075.01;109619;1275;22429;-61
2022/01/05 03:43:16;;;;;;;26.30;24.00;;;;;;;5.58;87.64;96077.80;109618;1275;23096;-60
2022/01/05 03:45:45;;;;;;;26.90;24.80;;;;;;;5.61;87.60;96078.14;109585;1275;22492;-61
2022/01/05 03:48:16;;;;;;;26.30;24.10;;;;;;;5.65;87.63;96075.04;109609;1275;22786;-60
2022/01/05 03:50:45;;;;;;;26.10;23.90;;;;;;;5.65;87.44;96075.89;109624;1275;22458;-58
2022/01/05 03:53:14;;;;;;;24.40;22.40;;;;;;;5.62;87.45;96066.04;109618;1275;22394;-59
2022/01/05 03:55:44;;;;;;;22.00;20.10;;;;;;;5.60;87.33;96069.23;109632;1275;23025;-58
2022/01/05 03:58:13;;;;;;;22.40;20.60;;;;;;;5.57;86.97;96072.37;109610;1276;22385;-59
2022/01/05 04:00:48;;;;;;;22.00;20.20;;;;;;;5.53;86.95;96083.93;109626;1275;22366;-59
2022/01/05 04:03:17;;;;;;;25.80;23.50;;;;;;;5.44;86.70;96088.71;109623;1275;22509;-60
2022/01/05 04:05:46;;;;;;;22.80;20.70;;;;;;;5.30;86.80;96089.48;109621;1275;23134;-59
2022/01/05 04:08:14;;;;;;;29.40;26.10;;;;;;;5.18;86.73;96093.95;109617;1275;22406;-59
2022/01/05 04:10:42;;;;;;;27.60;25.10;;;;;;;5.14;87.10;96103.05;109598;1275;22458;-60
2022/01/05 04:13:11;;;;;;;27.60;25.10;;;;;;;5.16;87.47;96112.77;109620;1275;22428;-59
2022/01/05 04:15:39;;;;;;;30.70;27.80;;;;;;;5.21;87.50;96125.39;109665;1276;22450;-59
2022/01/05 04:18:07;;;;;;;30.50;28.00;;;;;;;5.26;87.50;96126.01;109633;1275;23219;-60
2022/01/05 04:20:35;;;;;;;31.20;28.60;;;;;;;5.27;87.46;96122.45;109590;1275;22495;-59
2022/01/05 04:23:03;;;;;;;27.80;25.10;;;;;;;5.31;87.49;96124.61;109612;1275;22582;-60
2022/01/05 04:25:32;;;;;;;27.40;24.80;;;;;;;5.36;87.52;96125.58;109636;1275;22261;-59
2022/01/05 04:28:02;;;;;;;27.00;24.40;;;;;;;5.44;87.70;96123.27;109625;1275;22442;-60
2022/01/05 04:30:30;;;;;;;31.50;28.70;;;;;;;5.48;87.40;96120.84;109622;1275;23184;-60
2022/01/05 04:32:58;;;;;;;35.00;31.90;;;;;;;5.52;87.73;96124.69;109614;1274;22446;-60
2022/01/05 04:35:46;;;;;;;28.30;25.70;;;;;;;5.56;87.71;96122.20;109616;1276;22422;-59
2022/01/05 04:38:14;;;;;;;27.30;24.90;;;;;;;5.59;87.46;96127.94;109634;1275;22401;-60
2022/01/05 04:40:44;;;;;;;26.80;24.40;;;;;;;5.62;87.43;96133.80;109602;1275;22581;-60
2022/01/05 04:43:12;;;;;;;26.40;24.20;;;;;;;5.63;87.11;96130.80;109639;1274;22424;-59
2022/01/05 04:45:40;;;;;;;27.90;25.40;;;;;;;5.60;87.08;96133.16;109616;1275;22485;-60
2022/01/05 04:48:08;;;;;;;30.20;27.60;;;;;;;5.56;87.11;96138.19;109520;1275;137644;-60
2022/01/05 04:50:36;;;;;;;26.20;23.90;;;;;;;5.53;86.97;96147.42;109615;1275;22570;-60
2022/01/05 04:53:04;;;;;;;45.10;41.10;;;;;;;5.51;87.03;96148.85;109609;1275;22531;-60
2022/01/05 04:55:32;;;;;;;28.30;25.90;;;;;;;5.52;87.13;96147.10;109611;1275;23082;-60
2022/01/05 04:58:00;;;;;;;34.50;31.50;;;;;;;5.53;86.93;96149.71;109630;1275;22531;-60
2022/01/05 05:00:28;;;;;;;31.70;29.00;;;;;;;5.54;86.92;96154.80;109604;1275;23311;-60
2022/01/05 05:02:56;;;;;;;37.30;34.20;;;;;;;5.53;86.73;96161.25;109605;1275;22519;-60
2022/01/05 05:05:24;;;;;;;32.40;29.70;;;;;;;5.52;87.08;96159.13;109640;1275;22560;-59
2022/01/05 05:07:52;;;;;;;33.00;30.00;;;;;;;5.52;86.87;96167.74;109622;1275;22428;-60
2022/01/05 05:10:20;;;;;;;37.20;34.10;;;;;;;5.53;86.92;96163.02;109621;1275;22351;-60
2022/01/05 05:12:49;;;;;;;47.00;43.30;;;;;;;5.56;87.02;96154.00;109618;1274;22411;-60
2022/01/05 05:15:17;;;;;;;43.70;40.30;;;;;;;5.60;87.25;96150.90;109614;1275;22414;-61
2022/01/05 05:17:46;;;;;;;45.30;41.70;;;;;;;5.61;87.17;96157.33;109604;1275;22273;-60
2022/01/05 05:20:14;;;;;;;40.10;36.90;;;;;;;5.60;86.99;96159.54;109627;1275;23348;-60
2022/01/05 05:22:42;;;;;;;47.90;43.80;;;;;;;5.61;87.02;96156.11;109617;1275;23075;-59
2022/01/05 05:25:10;;;;;;;42.40;38.60;;;;;;;5.63;86.96;96154.71;109630;1275;23077;-60
2022/01/05 05:27:38;;;;;;;39.60;36.30;;;;;;;5.65;86.83;96153.38;109618;1275;22420;-60
2022/01/05 05:30:26;;;;;;;42.20;38.70;;;;;;;5.65;87.05;96148.56;109618;1275;23828;-59
2022/01/05 05:32:57;;;;;;;45.10;41.40;;;;;;;5.63;86.98;96138.09;109631;1275;22462;-59
2022/01/05 05:35:28;;;;;;;46.80;43.00;;;;;;;5.65;87.04;96138.85;109520;1276;22527;-59
2022/01/05 05:37:57;;;;;;;42.30;38.60;;;;;;;5.66;86.97;96139.14;109640;1275;23280;-60
2022/01/05 05:40:25;;;;;;;42.80;38.80;;;;;;;5.68;86.94;96136.56;109616;1275;22492;-60
2022/01/05 05:42:53;;;;;;;42.80;39.10;;;;;;;5.70;86.68;96130.84;109604;1274;22459;-60
2022/01/05 05:45:21;;;;;;;50.10;45.80;;;;;;;5.67;86.70;96122.31;109612;1273;22901;-60
2022/01/05 05:47:49;;;;;;;53.40;48.50;;;;;;;5.66;86.82;96124.14;109617;1276;22429;-60
2022/01/05 05:50:17;;;;;;;49.50;45.00;;;;;;;5.68;87.17;96120.21;109589;1275;22503;-60
2022/01/05 05:52:46;;;;;;;44.00;40.00;;;;;;;5.67;86.79;96114.73;109605;1275;22478;-60
2022/01/05 05:55:14;;;;;;;44.50;40.80;;;;;;;5.66;86.83;96120.11;109496;1276;22528;-61
2022/01/05 05:57:43;;;;;;;48.00;43.80;;;;;;;5.67;86.81;96129.27;109612;1275;22536;-60
2022/01/05 06:00:12;;;;;;;44.80;41.20;;;;;;;5.67;86.73;96140.48;109491;1275;137922;-59
2022/01/05 06:02:40;;;;;;;49.60;45.50;;;;;;;5.66;86.91;96144.60;109614;1276;22472;-58
2022/01/05 06:05:09;;;;;;;47.30;43.20;;;;;;;5.63;87.00;96138.84;109615;1275;23248;-59
2022/01/05 06:07:37;;;;;;;41.00;37.40;;;;;;;5.66;86.86;96124.33;109623;1275;22453;-60
2022/01/05 06:10:05;;;;;;;42.70;39.30;;;;;;;5.67;86.74;96106.81;109602;1275;22483;-60
2022/01/05 06:12:33;;;;;;;49.50;45.60;;;;;;;5.68;86.98;96108.92;109629;1275;23317;-59
2022/01/05 06:15:01;;;;;;;53.00;48.60;;;;;;;5.68;86.90;96122.52;109601;1275;22567;-60
2022/01/05 06:17:29;;;;;;;56.40;52.20;;;;;;;5.65;86.77;96123.89;109602;1275;22499;-60
2022/01/05 06:19:57;;;;;;;55.00;50.60;;;;;;;5.61;86.83;96137.45;109616;1275;22503;-59
2022/01/05 06:22:26;;;;;;;55.20;50.90;;;;;;;5.60;87.03;96163.04;109610;1275;23160;-60
2022/01/05 06:24:54;;;;;;;45.10;41.50;;;;;;;5.62;86.94;96162.35;109614;1275;22489;-59
2022/01/05 06:27:22;;;;;;;49.20;45.00;;;;;;;5.62;86.68;96144.56;109592;1275;22449;-60
2022/01/05 06:29:50;;;;;;;49.50;45.60;;;;;;;5.63;86.83;96131.95;109624;1276;23234;-59
2022/01/05 06:32:21;;;;;;;57.40;52.80;;;;;;;5.65;87.00;96133.77;109599;1275;22521;-59
2022/01/05 06:35:02;;;;;;;45.10;41.30;;;;;;;5.65;87.05;96145.80;109592;1275;22574;-59
2022/01/05 06:37:34;;;;;;;46.00;42.00;;;;;;;5.64;86.82;96174.69;109618;1275;22425;-60
2022/01/05 06:40:04;;;;;;;40.90;37.40;;;;;;;5.62;86.66;96184.61;109625;1275;22585;-60
2022/01/05 06:42:37;;;;;;;41.30;37.90;;;;;;;5.55;86.39;96194.44;109517;1276;22539;-59
2022/01/05 06:45:07;;;;;;;43.20;39.60;;;;;;;5.42;86.21;96200.58;109619;1275;23274;-60
2022/01/05 06:47:38;;;;;;;44.20;40.30;;;;;;;5.31;86.32;96180.52;109631;1277;22485;-59
2022/01/05 06:50:10;;;;;;;38.60;35.20;;;;;;;5.26;86.79;96190.25;109614;1274;22446;-61
2022/01/05 06:52:39;;;;;;;39.60;36.20;;;;;;;5.28;86.76;96196.89;109514;1277;22453;-61
2022/01/05 06:55:09;;;;;;;42.40;39.10;;;;;;;5.33;87.16;96189.27;109503;1275;138003;-61
2022/01/05 06:57:40;;;;;;;43.40;40.00;;;;;;;5.39;87.10;96171.11;109618;1274;22477;-60
2022/01/05 07:00:11;;;;;;;42.30;39.00;;;;;;;5.41;86.94;96177.00;109569;1274;22923;-60
2022/01/05 07:02:39;;;;;;;40.00;36.70;;;;;;;5.43;87.19;96183.23;109664;1274;22435;-60
2022/01/05 07:05:08;;;;;;;40.50;37.00;;;;;;;5.47;86.98;96178.66;109646;1274;22449;-61
2022/01/05 07:07:37;;;;;;;38.60;35.20;;;;;;;5.51;86.88;96181.08;109629;1274;22450;-59
2022/01/05 07:10:07;;;;;;;41.40;37.70;;;;;;;5.56;87.04;96181.70;109621;1274;22457;-59
2022/01/05 07:12:36;;;;;;;42.30;38.70;;;;;;;5.61;87.18;96182.56;109636;1274;22538;-61
2022/01/05 07:15:05;;;;;;;41.40;37.90;;;;;;;5.65;86.77;96179.75;109657;1274;22559;-60
2022/01/05 07:17:34;;;;;;;42.90;39.20;;;;;;;5.64;86.89;96180.77;109646;1274;22511;-60
2022/01/05 07:20:04;;;;;;;41.80;38.10;;;;;;;5.62;86.83;96180.45;109659;1274;23192;-60
2022/01/05 07:22:32;;;;;;;38.00;34.90;;;;;;;5.63;86.85;96177.70;109659;1274;23148;-60
2022/01/05 07:25:00;;;;;;;34.40;31.30;;;;;;;5.66;86.74;96171.10;109650;1274;22469;-60
2022/01/05 07:27:28;;;;;;;36.80;33.50;;;;;;;5.67;86.59;96176.84;109646;1274;22535;-60
2022/01/05 07:29:56;;;;;;;39.90;36.60;;;;;;;5.67;86.75;96186.39;109646;1274;22493;-60
2022/01/05 07:32:24;;;;;;;45.30;41.40;;;;;;;5.64;86.50;96178.89;109654;1274;22406;-61
2022/01/05 07:34:52;;;;;;;50.20;45.70;;;;;;;5.59;86.57;96173.58;109655;1274;22533;-60
2022/01/05 07:37:24;;;;;;;48.10;43.90;;;;;;;5.54;86.68;96175.36;109683;1274;23318;-60
2022/01/05 07:39:52;;;;;;;44.80;40.70;;;;;;;5.55;86.85;96173.16;109610;1275;22615;-59
2022/01/05 07:42:20;;;;;;;44.60;40.60;;;;;;;5.59;86.87;96180.22;109676;1273;23188;-60
2022/01/05 07:44:48;;;;;;;48.40;44.20;;;;;;;5.64;86.79;96177.35;109696;1274;23277;-59
2022/01/05 07:47:16;;;;;;;42.60;39.20;;;;;;;5.65;86.67;96169.46;109695;1274;23336;-60
2022/01/05 07:49:44;;;;;;;42.50;38.80;;;;;;;5.64;86.61;96175.17;109692;1274;23354;-60
2022/01/05 07:52:12;;;;;;;42.00;38.40;;;;;;;5.62;86.78;96173.82;109607;1275;22740;-60
2022/01/05 07:54:40;;;;;;;39.10;35.60;;;;;;;5.61;86.81;96170.04;109611;1276;22422;-59
2022/01/05 07:57:08;;;;;;;33.50;30.40;;;;;;;5.60;86.59;96168.06;109672;1274;22470;-58
2022/01/05 07:59:37;;;;;;;35.40;32.50;;;;;;;5.59;86.56;96169.36;109665;1274;22546;-60
2022/01/05 08:02:05;;;;;;;37.80;34.60;;;;;;;5.57;86.65;96160.14;109657;1274;22701;-60
2022/01/05 08:04:33;;;;;;;42.30;38.40;;;;;;;5.55;86.73;96150.57;109679;1273;23173;-59
2022/01/05 08:07:02;;;;;;;50.00;45.20;;;;;;;5.54;86.90;96152.61;109681;1274;23175;-59
2022/01/05 08:09:30;;;;;;;43.90;39.90;;;;;;;5.58;87.30;96159.03;109666;1274;22473;-59
2022/01/05 08:11:58;;;;;;;36.50;33.10;;;;;;;5.64;87.32;96161.79;109685;1274;23608;-59
2022/01/05 08:14:26;;;;;;;39.10;35.40;;;;;;;5.67;87.05;96164.54;109611;1275;23594;-60
2022/01/05 08:16:54;;;;;;;41.10;37.50;;;;;;;5.72;87.18;96167.89;109690;1274;22440;-61
2022/01/05 08:19:22;;;;;;;45.30;41.30;;;;;;;5.68;86.83;96176.11;109689;1272;22489;-61
2022/01/05 08:21:50;;;;;;;48.80;44.30;;;;;;;5.61;86.64;96173.31;109691;1273;22447;-61
2022/01/05 08:24:18;;;;;;;46.70;42.60;;;;;;;5.54;86.66;96169.98;109701;1274;22517;-60
2022/01/05 08:26:46;;;;;;;41.80;37.90;;;;;;;5.50;86.75;96171.31;109681;1274;22738;-60
2022/01/05 08:29:14;;;;;;;41.40;37.80;;;;;;;5.50;86.69;96172.92;109673;1272;22443;-60
2022/01/05 08:31:42;;;;;;;47.60;43.30;;;;;;;5.50;86.80;96170.73;109612;1275;22443;-60
2022/01/05 08:34:11;;;;;;;44.80;40.80;;;;;;;5.50;86.70;96171.80;109681;1274;22665;-62
2022/01/05 08:36:39;;;;;;;43.70;40.00;;;;;;;5.48;86.84;96179.48;109682;1274;23027;-61
2022/01/05 08:39:07;;;;;;;34.90;31.80;;;;;;;5.47;86.74;96182.09;109677;1273;23468;-61
2022/01/05 08:41:36;;;;;;;33.70;30.40;;;;;;;5.48;86.95;96186.02;109672;1274;22544;-61
2022/01/05 08:44:04;;;;;;;35.70;32.60;;;;;;;5.50;87.06;96187.98;109665;1273;23181;-60
2022/01/05 08:46:32;;;;;;;37.60;34.30;;;;;;;5.52;86.76;96189.52;109678;1274;22362;-59
2022/01/05 08:49:00;;;;;;;41.20;37.50;;;;;;;5.53;87.11;96179.58;109691;1274;22457;-60
2022/01/05 08:51:28;;;;;;;44.90;40.50;;;;;;;5.55;87.22;96174.32;109660;1274;22435;-59
2022/01/05 08:53:56;;;;;;;41.60;37.30;;;;;;;5.55;87.14;96181.80;109680;1274;22531;-59
2022/01/05 08:56:25;;;;;;;48.60;38.80;;;;;;;5.54;87.11;96195.25;109664;1274;22593;-59
2022/01/05 08:58:54;;;;;;;50.40;41.60;;;;;;;5.50;86.84;96197.34;109627;1275;22468;-60
2022/01/05 09:01:23;;;;;;;45.90;38.10;;;;;;;5.47;86.75;96199.91;109684;1274;22480;-60
2022/01/05 09:03:52;;;;;;;41.30;36.80;;;;;;;5.45;87.00;96201.84;109678;1274;22454;-61
2022/01/05 09:06:20;;;;;;;37.70;33.60;;;;;;;5.43;87.16;96203.38;109670;1274;22534;-60
2022/01/05 09:08:49;;;;;;;46.80;38.70;;;;;;;5.42;87.25;96207.91;109653;1274;22523;-60
2022/01/05 09:11:22;;;;;;;41.50;36.40;;;;;;;5.42;87.19;96211.16;109616;1275;23057;-59
2022/01/05 09:13:50;;;;;;;28.60;25.70;;;;;;;5.41;87.03;96219.30;109670;1274;23325;-61
2022/01/05 09:16:20;;;;;;;25.60;23.10;;;;;;;5.42;86.95;96225.05;109668;1274;22492;-60
2022/01/05 09:18:50;;;;;;;32.60;29.20;;;;;;;5.42;87.11;96224.30;109663;1274;22424;-60
2022/01/05 09:21:18;;;;;;;37.10;33.20;;;;;;;5.42;87.11;96224.77;109658;1274;23650;-59
2022/01/05 09:23:46;;;;;;;43.10;38.40;;;;;;;5.42;87.17;96227.45;109679;1273;22506;-61
2022/01/05 09:26:14;;;;;;;49.40;39.50;;;;;;;5.42;87.22;96220.49;109626;1275;22397;-60
2022/01/05 09:28:44;;;;;;;58.50;47.50;;;;;;;5.43;87.00;96217.74;109666;1274;22429;-60
2022/01/05 09:31:12;;;;;;;73.40;64.50;;;;;;;5.43;86.67;96214.66;109606;1277;23143;-60
2022/01/05 09:33:41;;;;;;;54.70;42.10;;;;;;;5.39;86.74;96223.31;109655;1274;22252;-60
2022/01/05 09:36:18;;;;;;;39.00;31.90;;;;;;;5.34;86.98;96230.28;109678;1274;22441;-60
2022/01/05 09:44:08;;;;;;;27.00;24.20;;;;;;;5.23;87.11;96232.27;109662;1274;22454;-60
2022/01/05 09:47:02;;;;;;;29.50;26.30;;;;;;;5.23;86.66;96229.52;109604;1275;23142;-60
2022/01/05 09:49:39;;;;;;;27.40;24.70;;;;;;;5.20;87.00;96235.48;109670;1274;22487;-61
2022/01/05 09:52:09;;;;;;;22.70;20.60;;;;;;;5.12;86.83;96237.69;109668;1274;22496;-60
2022/01/05 09:54:42;;;;;;;24.00;21.40;;;;;;;5.01;86.95;96230.95;109663;1272;22434;-61
2022/01/05 09:57:13;;;;;;;25.90;23.30;;;;;;;4.94;87.23;96226.53;109657;1274;22450;-61
2022/01/05 09:59:41;;;;;;;20.60;18.50;;;;;;;4.90;86.94;96230.31;109593;1272;23254;-62
2022/01/05 10:02:09;;;;;;;20.60;18.50;;;;;;;4.89;87.20;96228.17;109642;1274;22524;-61
2022/01/05 10:04:40;;;;;;;17.90;16.10;;;;;;;4.85;86.88;96225.46;109674;1274;22435;-61
2022/01/05 10:07:09;;;;;;;19.10;17.10;;;;;;;4.81;87.32;96228.45;109672;1274;23192;-61
2022/01/05 10:09:38;;;;;;;16.80;14.20;;;;;;;4.74;87.07;96231.16;109644;1274;22588;-60
2022/01/05 10:12:08;;;;;;;16.70;15.00;;;;;;;4.72;87.07;96224.17;109657;1274;22464;-60
2022/01/05 10:14:43;;;;;;;17.00;15.20;;;;;;;4.72;87.46;96217.86;109602;1274;23847;-59
2022/01/05 10:17:28;;;;;;;17.90;15.50;;;;;;;4.75;87.24;96209.84;109525;1274;22449;-60
2022/01/05 10:19:59;;;;;;;21.20;18.50;;;;;;;4.77;87.51;96204.94;109568;1274;22471;-60
2022/01/05 10:22:37;;;;;;;18.10;16.10;;;;;;;4.78;87.37;96210.62;109550;1275;22471;-59
2022/01/05 10:25:17;;;;;;;35.00;31.50;;;;;;;4.84;87.67;96212.80;109576;1275;22420;-61
2022/01/05 10:28:05;;;;;;;25.10;22.50;;;;;;;4.87;87.31;96207.58;109573;1275;22446;-61
2022/01/05 10:30:46;;;;;;;19.90;17.90;;;;;;;4.92;87.40;96206.56;109556;1275;23210;-59
2022/01/05 10:33:33;;;;;;;22.60;19.60;;;;;;;4.96;87.46;96209.88;109546;1275;22491;-60
2022/01/05 10:36:05;;;;;;;26.00;23.40;;;;;;;4.98;87.62;96207.32;109569;1275;22273;-59
2022/01/05 10:38:50;;;;;;;30.60;27.30;;;;;;;5.00;87.45;96210.45;109552;1275;22402;-59
2022/01/05 10:41:31;;;;;;;26.80;24.00;;;;;;;5.01;87.59;96213.40;109557;1275;22466;-61
2022/01/05 10:44:08;;;;;;;38.20;34.40;;;;;;;5.00;87.43;96215.02;109580;1275;23262;-61
2022/01/05 10:46:47;;;;;;;;;;;;;;;5.01;87.42;96214.71;109588;1275;22437;-60
2022/01/05 10:49:41;;;;;;;25.80;23.40;;;;;;;5.00;87.61;96211.30;109580;1275;22487;-60
2022/01/05 10:52:29;;;;;;;32.70;29.60;;;;;;;4.98;87.71;96203.11;109511;1276;23118;-60
2022/01/05 10:55:17;;;;;;;31.60;28.60;;;;;;;4.98;87.55;96200.53;109567;1275;22566;-60
2022/01/05 10:58:02;;;;;;;28.30;25.50;;;;;;;4.99;87.76;96196.67;109579;1276;22543;-60
2022/01/05 11:00:40;;;;;;;24.00;21.70;;;;;;;5.00;87.75;96189.50;109551;1276;23205;-60
2022/01/05 11:03:23;;;;;;;27.90;25.00;;;;;;;5.02;87.53;96197.10;109580;1276;22517;-61
2022/01/05 11:06:11;;;;;;;23.50;21.20;;;;;;;5.03;87.70;96196.80;109579;1275;22398;-61
2022/01/05 11:08:51;;;;;;;21.50;19.30;;;;;;;4.99;87.74;96191.83;109560;1275;22549;-61
2022/01/05 11:11:43;;;;;;;;;;;;;;;4.99;87.80;96193.91;109587;1276;22437;-61
2022/01/05 11:14:18;;;;;;;21.50;19.30;;;;;;;4.99;87.81;96193.78;109575;1277;22491;-61
2022/01/05 11:16:51;;;;;;;31.50;25.80;;;;;;;5.01;87.40;96192.73;109582;1277;22478;-60
2022/01/05 11:19:29;;;;;;;18.40;16.50;;;;;;;5.02;87.76;96190.85;109558;1275;22509;-62
2022/01/05 11:22:03;;;;;;;70.90;40.20;;;;;;;5.02;87.55;96188.60;109559;1275;22277;-61
2022/01/05 11:24:53;;;;;;;26.40;19.40;;;;;;;5.01;87.53;96197.22;109576;1275;22438;-60
2022/01/05 11:27:28;;;;;;;18.90;16.00;;;;;;;4.99;87.60;96198.34;109567;1275;23145;-60
2022/01/05 11:29:58;;;;;;;23.10;17.30;;;;;;;4.99;87.69;96184.94;109573;1275;22555;-61
2022/01/05 11:32:30;;;;;;;27.30;23.00;;;;;;;4.99;87.56;96181.48;109566;1275;22400;-60
2022/01/05 11:35:07;;;;;;;21.10;19.20;;;;;;;4.97;87.70;96174.25;109548;1276;22510;-60
2022/01/05 11:37:37;;;;;;;19.30;17.40;;;;;;;4.98;87.74;96187.31;109552;1275;22475;-60
2022/01/05 11:40:07;;;;;;;18.00;15.90;;;;;;;4.96;87.51;96195.91;109574;1276;22495;-60